createdAt,value
2018-10-17T00:00:22.046Z,13.28
2018-10-17T00:05:22.273Z,13.08
2018-10-17T00:10:22.726Z,12.98
2018-10-17T00:15:22.289Z,13.38
2018-10-17T00:20:22.640Z,13.28
2018-10-17T00:25:23.037Z,13.58
2018-10-17T00:30:22.253Z,13.88
2018-10-17T00:35:22.549Z,13.58
2018-10-17T00:40:23.255Z,13.28
2018-10-17T00:45:22.556Z,13.18
2018-10-17T00:50:22.859Z,12.88
2018-10-17T00:55:22.353Z,13.18
2018-10-17T01:00:22.560Z,12.98
2018-10-17T01:05:22.850Z,13.08
2018-10-17T01:10:22.334Z,12.98
2018-10-17T01:15:22.887Z,13.08
2018-10-17T01:20:22.175Z,12.48
2018-10-17T01:25:22.649Z,12.88
2018-10-17T01:30:22.867Z,12.78
2018-10-17T01:35:22.143Z,12.68
2018-10-17T01:40:22.799Z,12.38
2018-10-17T01:45:22.198Z,12.18
2018-10-17T01:50:22.478Z,12.18
2018-10-17T01:55:22.956Z,11.98
2018-10-17T02:00:22.156Z,11.58
2018-10-17T02:05:22.452Z,11.78
2018-10-17T02:10:22.931Z,12.58
2018-10-17T02:15:22.491Z,12.98
2018-10-17T02:20:22.820Z,12.48
2018-10-17T02:25:22.276Z,12.78
2018-10-17T02:30:22.558Z,12.28
2018-10-17T02:35:22.806Z,12.18
2018-10-17T02:40:22.269Z,12.58
2018-10-17T02:45:22.813Z,12.98
2018-10-17T02:50:22.134Z,12.38
2018-10-17T02:55:22.633Z,11.88
2018-10-17T03:00:22.834Z,12.28
2018-10-17T03:05:22.160Z,11.88
2018-10-17T03:10:22.742Z,11.58
2018-10-17T03:15:22.201Z,11.68
2018-10-17T03:20:22.494Z,12.08
2018-10-17T03:25:22.967Z,12.08
2018-10-17T03:30:22.225Z,11.78
2018-10-17T03:35:22.539Z,12.18
2018-10-17T03:40:22.947Z,11.88
2018-10-17T03:45:22.559Z,11.68
2018-10-17T03:50:22.831Z,11.68
2018-10-17T03:55:22.329Z,11.68
2018-10-17T04:00:22.545Z,11.98
2018-10-17T04:05:22.816Z,11.88
2018-10-17T04:10:22.270Z,11.58
2018-10-17T04:15:22.856Z,11.68
2018-10-17T04:20:22.176Z,11.48
2018-10-17T04:25:22.626Z,11.88
2018-10-17T04:30:22.830Z,12.18
2018-10-17T04:35:22.120Z,12.18
2018-10-17T04:40:22.601Z,11.98
2018-10-17T04:45:22.157Z,11.38
2018-10-17T04:50:22.461Z,11.38
2018-10-17T04:55:22.935Z,11.58
2018-10-17T05:00:22.165Z,11.98
2018-10-17T05:05:22.430Z,12.28
2018-10-17T05:10:22.902Z,12.38
2018-10-17T05:15:22.993Z,11.48
2018-10-17T05:20:22.772Z,11.48
2018-10-17T05:25:22.180Z,11.08
2018-10-17T05:30:22.432Z,11.58
2018-10-17T05:35:22.712Z,11.38
2018-10-17T05:40:22.206Z,11.68
2018-10-17T05:45:22.775Z,12.18
2018-10-17T05:50:22.080Z,12.28
2018-10-17T05:55:22.697Z,11.78
2018-10-17T06:00:22.783Z,12.08
2018-10-17T06:05:22.095Z,12.18
2018-10-17T06:10:23.178Z,11.68
2018-10-17T06:15:22.129Z,11.68
2018-10-17T06:20:22.436Z,11.68
2018-10-17T06:25:22.885Z,11.08
2018-10-17T06:30:22.097Z,12.38
2018-10-17T06:35:22.467Z,11.78
2018-10-17T06:40:22.827Z,11.88
2018-10-17T06:45:22.374Z,11.98
2018-10-17T06:50:22.699Z,12.28
2018-10-17T06:55:22.178Z,12.08
2018-10-17T07:00:22.382Z,12.18
2018-10-17T07:05:23.742Z,12.88
2018-10-17T07:10:22.209Z,12.58
2018-10-17T07:15:23.263Z,12.58
2018-10-17T07:20:22.035Z,12.88
2018-10-17T07:25:22.487Z,12.98
2018-10-17T07:30:22.746Z,13.38
2018-10-17T07:35:22.043Z,13.28
2018-10-17T07:40:22.488Z,13.58
2018-10-17T07:45:22.101Z,13.38
2018-10-17T07:50:22.385Z,13.68
2018-10-17T07:55:22.885Z,13.68
2018-10-17T08:00:22.365Z,13.88
2018-10-17T08:05:22.380Z,14.08
2018-10-17T08:10:22.884Z,14.18
2018-10-17T08:15:22.482Z,14.28
2018-10-17T08:20:22.764Z,14.68
2018-10-17T08:25:22.269Z,14.78
2018-10-17T08:30:22.486Z,14.98
2018-10-17T08:35:23.173Z,15.18
2018-10-17T08:40:22.251Z,15.28
2018-10-17T08:45:22.857Z,15.48
2018-10-17T08:50:22.741Z,15.68
2018-10-17T08:55:22.587Z,15.88
2018-10-17T09:00:22.798Z,15.88
2018-10-17T09:05:22.088Z,15.98
2018-10-17T09:10:22.549Z,16.28
2018-10-17T09:15:22.154Z,16.48
2018-10-17T09:20:23.718Z,16.68
2018-10-17T09:25:23.042Z,16.88
2018-10-17T09:30:22.950Z,16.98
2018-10-17T09:35:22.692Z,16.98
2018-10-17T09:40:23.282Z,17.08
2018-10-17T09:45:22.477Z,17.48
2018-10-17T09:50:22.752Z,17.78
2018-10-17T09:55:22.251Z,17.98
2018-10-17T10:00:22.498Z,18.38
2018-10-17T10:05:22.803Z,18.52
2018-10-17T10:10:22.258Z,18.46
2018-10-17T10:15:22.827Z,18.74
2018-10-17T10:20:22.108Z,19.08
2018-10-17T10:25:22.891Z,19.44
2018-10-17T10:30:23.247Z,19.56
2018-10-17T10:35:22.066Z,19.69
2018-10-17T10:40:22.626Z,19.70
2018-10-17T10:45:22.663Z,19.87
2018-10-17T10:50:22.499Z,20.07
2018-10-17T10:55:22.933Z,20.13
2018-10-17T11:00:22.161Z,20.26
2018-10-17T11:05:23.482Z,20.45
2018-10-17T11:10:22.918Z,20.54
2018-10-17T11:15:22.515Z,20.60
2018-10-17T11:20:22.827Z,20.89
2018-10-17T11:25:22.350Z,21.23
2018-10-17T11:30:22.490Z,21.57
2018-10-17T11:35:22.784Z,21.80
2018-10-17T11:40:22.272Z,21.17
2018-10-17T11:45:22.817Z,21.13
2018-10-17T11:50:22.231Z,20.96
2018-10-17T11:55:22.661Z,21.38
2018-10-17T12:00:22.847Z,21.79
2018-10-17T12:05:23.834Z,21.73
2018-10-17T12:10:22.596Z,22.14
2018-10-17T12:15:22.176Z,22.16
2018-10-17T12:20:22.472Z,21.93
2018-10-17T12:25:22.908Z,21.58
2018-10-17T12:30:22.149Z,21.77
2018-10-17T12:35:22.490Z,21.87
2018-10-17T12:40:23.292Z,21.34
2018-10-17T12:45:22.987Z,21.73
2018-10-17T12:50:23.001Z,21.48
2018-10-17T12:55:22.342Z,21.30
2018-10-17T13:00:22.884Z,21.10
2018-10-17T13:05:22.772Z,21.43
2018-10-17T13:10:22.243Z,21.31
2018-10-17T13:15:22.821Z,21.35
2018-10-17T13:20:22.153Z,21.12
2018-10-17T13:25:22.595Z,21.11
2018-10-17T13:30:22.798Z,21.21
2018-10-17T13:35:22.070Z,21.19
2018-10-17T13:40:22.570Z,21.04
2018-10-17T13:45:22.162Z,21.21
2018-10-17T13:50:22.482Z,21.47
2018-10-17T13:55:23.895Z,21.30
2018-10-17T14:00:22.142Z,21.71
2018-10-17T14:05:22.420Z,21.77
2018-10-17T14:10:22.952Z,21.77
2018-10-17T14:15:22.510Z,21.75
2018-10-17T14:20:22.839Z,21.56
2018-10-17T14:25:22.318Z,21.42
2018-10-17T14:30:23.088Z,21.34
2018-10-17T14:35:22.760Z,21.15
2018-10-17T14:40:22.259Z,21.36
2018-10-17T14:45:22.792Z,21.24
2018-10-17T14:50:22.070Z,21.09
2018-10-17T14:55:22.639Z,21.09
2018-10-17T15:00:22.809Z,21.36
2018-10-17T15:05:22.080Z,21.15
2018-10-17T15:10:22.933Z,20.97
2018-10-17T15:15:22.445Z,20.90
2018-10-17T15:20:22.394Z,20.97
2018-10-17T15:25:22.929Z,20.82
2018-10-17T15:30:22.115Z,20.74
2018-10-17T15:35:22.426Z,20.73
2018-10-17T15:40:22.906Z,20.53
2018-10-17T15:45:22.494Z,20.45
2018-10-17T15:50:22.767Z,20.45
2018-10-17T15:55:22.304Z,20.31
2018-10-17T16:00:22.551Z,20.18
2018-10-17T16:05:22.417Z,20.12
2018-10-17T16:10:22.925Z,19.78
2018-10-17T16:15:22.470Z,19.65
2018-10-17T16:20:22.732Z,19.61
2018-10-17T16:25:22.296Z,19.49
2018-10-17T16:30:23.189Z,19.32
2018-10-17T16:35:22.696Z,19.38
2018-10-17T16:40:22.176Z,19.13
2018-10-17T16:45:22.735Z,19.07
2018-10-17T16:50:22.583Z,19.06
2018-10-17T16:55:22.530Z,18.87
2018-10-17T17:00:22.746Z,18.66
2018-10-17T17:05:22.043Z,18.56
2018-10-17T17:10:22.532Z,18.74
2018-10-17T17:15:22.188Z,18.67
2018-10-17T17:20:22.378Z,18.43
2018-10-17T17:25:22.840Z,18.15
2018-10-17T17:30:22.582Z,17.93
2018-10-17T17:40:22.799Z,17.41
2018-10-17T17:45:22.413Z,17.53
2018-10-17T17:50:22.657Z,17.70
2018-10-17T17:55:22.215Z,17.51
2018-10-17T18:00:22.380Z,17.55
2018-10-17T18:05:22.661Z,17.65
2018-10-17T18:10:22.202Z,17.34
2018-10-17T18:15:22.701Z,16.98
2018-10-17T18:20:22.013Z,16.58
2018-10-17T18:25:22.502Z,16.68
2018-10-17T18:30:22.655Z,17.14
2018-10-17T18:35:21.966Z,17.28
2018-10-17T18:40:22.587Z,17.07
2018-10-17T18:45:22.121Z,16.78
2018-10-17T18:50:22.330Z,16.48
2018-10-17T18:55:22.884Z,16.78
2018-10-17T19:00:22.047Z,16.88
2018-10-17T19:05:22.337Z,16.58
2018-10-17T19:10:22.861Z,16.18
2018-10-17T19:15:22.377Z,15.88
2018-10-17T19:20:22.679Z,15.68
2018-10-17T19:25:22.208Z,15.58
2018-10-17T19:30:22.962Z,15.98
2018-10-17T19:35:22.621Z,16.48
2018-10-17T19:40:22.154Z,15.98
2018-10-17T19:45:22.688Z,15.58
2018-10-17T19:50:21.983Z,15.68
2018-10-17T19:55:22.535Z,15.98
2018-10-17T20:00:22.676Z,15.88
2018-10-17T20:05:21.973Z,15.18
2018-10-17T20:10:22.524Z,15.38
2018-10-17T20:15:22.005Z,15.38
2018-10-17T20:20:22.295Z,15.08
2018-10-17T20:25:22.796Z,14.78
2018-10-17T20:30:21.992Z,14.88
2018-10-17T20:35:22.258Z,14.98
2018-10-17T20:40:22.788Z,14.98
2018-10-17T20:45:22.325Z,15.48
2018-10-17T20:50:22.639Z,15.08
2018-10-17T20:55:22.168Z,15.38
2018-10-17T21:00:22.307Z,14.68
2018-10-17T21:05:22.603Z,14.78
2018-10-17T21:10:22.135Z,14.78
2018-10-17T21:15:22.743Z,14.98
2018-10-17T21:20:21.956Z,14.28
2018-10-17T21:25:22.498Z,14.18
2018-10-17T21:30:22.619Z,14.28
2018-10-17T21:35:21.919Z,14.68
2018-10-17T21:40:22.444Z,14.68
2018-10-17T21:45:22.002Z,14.88
2018-10-17T21:50:22.356Z,14.38
2018-10-17T21:55:22.799Z,13.88
2018-10-17T22:00:22.070Z,13.68
2018-10-17T22:05:22.269Z,13.58
2018-10-17T22:10:22.767Z,13.48
2018-10-17T22:15:22.337Z,13.88
2018-10-17T22:20:22.594Z,13.58
2018-10-17T22:25:22.101Z,13.38
2018-10-17T22:30:22.285Z,13.18
2018-10-17T22:35:22.583Z,13.18
2018-10-17T22:40:22.104Z,13.18
2018-10-17T22:45:22.576Z,13.58
2018-10-17T22:50:21.881Z,13.48
2018-10-17T22:55:22.893Z,13.18
2018-10-17T23:00:22.612Z,13.08
2018-10-17T23:05:22.864Z,13.38
2018-10-17T23:10:22.413Z,13.38
2018-10-17T23:15:21.950Z,13.28
2018-10-17T23:20:22.227Z,12.98
2018-10-17T23:25:22.719Z,12.48
2018-10-17T23:30:21.913Z,12.38
2018-10-17T23:35:22.200Z,12.58
2018-10-17T23:40:22.698Z,12.18
2018-10-17T23:45:22.258Z,12.28
2018-10-17T23:50:22.565Z,12.58
2018-10-17T23:55:22.109Z,12.88
